»·PEaware :: N733NB KSBP-KSBP

N733NB :: KSBP-KSBP

FLIGHT INFORMATION

Flight Status: Arrived
Operator: Privately registered:
United States
More flights under this callsign
Pilot: Todd P. (5750)
Aircraft: CESSNA 172 SKYHAWK
(C172)
More flights by this aircraft type
Origin: KSBP San Luis Co Regl
United States
Destination: KSBP San Luis Co Regl
United States
More flights between these airports :: More routes between these airports
Route: MQO
File this flight plan on PilotEdge
Remarks:
Altitude:
(Current/Filed)
4,500ft
Speed:
(Current/Filed)
100kts
Departed: 14-May-15 06:56 AM
Arrived: 14-May-15 08:16 AM
Distance/Time
Traveled:
0nm/1:20
Distance/Time
To Go:
Arrived

Flight Plot

Page will automatically refresh every two minutes.


Map Options




Map Legend


Flown Route
Filed Route
Departure Airport
Arrival Airport
Navaid (VOR, NDB)
Fix

Horizontal Profiles

Position Reports

Time Latitude Longitude Heading Altitude Ground
Speed
14-May-15 06:52 35.235869 -120.638117 121 474ft 67kts
14-May-15 06:53 35.223963 -120.633462 250 1420ft 73kts
14-May-15 06:54 35.229587 -120.658501 282 2299ft 80kts
14-May-15 06:55 35.233421 -120.683150 285 3150ft 82kts
14-May-15 06:56 35.239554 -120.710005 290 4022ft 83kts
14-May-15 06:57 35.250665 -120.738267 296 4620ft 102kts
14-May-15 06:58 35.266488 -120.772806 300 4587ft 125kts
14-May-15 06:59 35.297348 -120.782589 6 4459ft 115kts
14-May-15 07:00 35.325756 -120.790208 291 4387ft 114kts
14-May-15 07:01 35.340695 -120.822172 305 4484ft 109kts
14-May-15 07:02 35.356885 -120.853528 298 4582ft 108kts
14-May-15 07:03 35.375385 -120.885183 310 4182ft 118kts
14-May-15 07:04 35.377740 -120.915853 188 3960ft 101kts
14-May-15 07:05 35.365328 -120.895367 106 3994ft 96kts
14-May-15 07:06 35.359553 -120.863774 98 3862ft 105kts
14-May-15 07:10 35.316213 -120.788213 108 2984ft 101kts
14-May-15 07:11 35.304057 -120.757674 132 2380ft 102kts
14-May-15 07:12 35.287002 -120.729632 118 1581ft 93kts
14-May-15 07:13 35.274240 -120.706109 127 1317ft 84kts
14-May-15 07:14 35.260868 -120.682680 120 918ft 82kts
14-May-15 07:15 35.242995 -120.668715 143 780ft 70kts
14-May-15 07:16 35.231031 -120.647055 120 991ft 95kts
14-May-15 07:17 35.215430 -120.617976 142 1526ft 98kts
14-May-15 07:18 35.192477 -120.627754 189 2435ft 92kts
14-May-15 07:19 35.169096 -120.635157 192 3323ft 91kts
14-May-15 07:20 35.150632 -120.649666 289 4113ft 100kts
14-May-15 07:21 35.166639 -120.678215 315 4510ft 109kts
14-May-15 07:22 35.185285 -120.710272 305 4464ft 114kts
14-May-15 07:23 35.203597 -120.742091 309 4531ft 115kts
14-May-15 07:24 35.222818 -120.773920 306 4553ft 114kts
14-May-15 07:25 35.250957 -120.790492 342 4500ft 121kts
14-May-15 07:26 35.281136 -120.808880 329 4265ft 117kts
14-May-15 07:27 35.306386 -120.830051 325 4286ft 111kts
14-May-15 07:28 35.332039 -120.854809 335 3946ft 113kts
14-May-15 07:29 35.359703 -120.868684 341 3942ft 111kts
14-May-15 07:30 35.378352 -120.896357 308 4026ft 105kts
14-May-15 07:31 35.391728 -120.927794 263 3973ft 115kts
14-May-15 07:32 35.375850 -120.923062 96 3912ft 109kts
14-May-15 07:33 35.373997 -120.890468 99 4145ft 93kts
14-May-15 07:34 35.361585 -120.859628 124 3977ft 104kts
14-May-15 07:35 35.345219 -120.832608 122 4024ft 101kts
14-May-15 07:36 35.329020 -120.802483 113 3266ft 101kts
14-May-15 07:37 35.314420 -120.775720 128 2730ft 86kts
14-May-15 07:38 35.299004 -120.750059 126 2180ft 96kts
14-May-15 07:39 35.285806 -120.726905 122 1728ft 79kts
14-May-15 07:40 35.273849 -120.705231 123 1289ft 72kts
14-May-15 07:41 35.262637 -120.683962 131 959ft 75kts
14-May-15 07:42 35.250513 -120.663646 124 514ft 73kts
14-May-15 07:43 35.237940 -120.639474 123 1032ft 94kts
14-May-15 07:44 35.221642 -120.627707 191 2118ft 74kts
14-May-15 07:45 35.201948 -120.633120 203 3035ft 73kts
14-May-15 07:46 35.187193 -120.650165 236 3838ft 84kts
14-May-15 07:47 35.169845 -120.678169 210 3997ft 114kts
14-May-15 07:48 35.160174 -120.709507 300 4385ft 121kts
14-May-15 07:49 35.188236 -120.731593 341 4358ft 124kts
14-May-15 07:50 35.218900 -120.740952 346 4175ft 114kts
14-May-15 07:51 35.248894 -120.750761 342 4061ft 105kts
14-May-15 07:52 35.273380 -120.768910 304 3950ft 107kts
14-May-15 07:53 35.290310 -120.797524 303 3972ft 110kts
14-May-15 07:54 35.308652 -120.826244 307 3943ft 109kts
14-May-15 07:55 35.325473 -120.854109 306 4014ft 109kts
14-May-15 07:56 35.343929 -120.882355 303 3962ft 106kts
14-May-15 07:57 35.363138 -120.912976 308 3488ft 104kts
14-May-15 07:58 35.381966 -120.919662 85 3395ft 92kts
14-May-15 07:59 35.372399 -120.892939 107 3459ft 93kts
14-May-15 08:00 35.362142 -120.862168 130 3245ft 101kts
14-May-15 08:01 35.345592 -120.832241 129 2536ft 97kts
14-May-15 08:02 35.331476 -120.807638 121 2458ft 84kts
14-May-15 08:03 35.321938 -120.781854 112 2426ft 84kts
14-May-15 08:04 35.308936 -120.759292 135 2420ft 81kts
14-May-15 08:05 35.291445 -120.737610 130 2035ft 91kts
14-May-15 08:06 35.277837 -120.711638 134 1588ft 90kts
14-May-15 08:07 35.264240 -120.687544 126 1251ft 83kts
14-May-15 08:08 35.248259 -120.671093 164 1158ft 75kts
14-May-15 08:09 35.233276 -120.653785 132 1165ft 69kts
14-May-15 08:10 35.220767 -120.635789 134 1045ft 65kts
14-May-15 08:11 35.226523 -120.624108 328 579ft 62kts
14-May-15 08:12 35.234419 -120.635693 304 207ft 43kts
14-May-15 08:13 35.237500 -120.639752 3 192ft 0kts
14-May-15 08:14 35.238477 -120.639688 159 192ft 0kts

Navigation Log

Ident Type
Flight plan parsing failed, navigation log unavailable